Terminal Aerodrome Forecast
Issued by NWS

Home | Current Version | Previous Version | Text Only | Print | Product List | Glossary On
Versions: 1 2 3 4 5 6 7 8 9 10 11 12 13 14 15 16 17 18 19
000
FTUS44 KLIX 261303 AAA
TAFMCB
TAF AMD
KMCB 261303Z 2613/2712 00000KT 1/4SM FG VV002
     FM261430 VRB03KT 5SM BR SCT010
     FM261500 VRB03KT P6SM SCT120
     FM271000 00000KT P6SM BKN090=

USA.gov is the U.S. government's official web portal to all federal, state and local government web resources and services.